+43 3833 8250 0 office@segelflug.at

Wetter

ACHTUNG: Die hier angeboten Wetter-Informationen sind nicht geeicht und dürfen für Flugvorbereitungen nicht verwendet werden
ACG Flugwetter

METAR/TAF LOXZ

LOXZ 181950Z VRB01KT 15KM FEW050SC M10/M10 Q1019

TAF LOXZ 181415Z 1812/1824 CNL

METAR/TAF LOXA

LOXA 100820Z VRB02KT 50KM FEW120AC SCT300CI 17/13 Q1021 NOSIG RMK SCT

TAF TAF LOXA 090515Z 0906/0918 VRB03KT 0500 FG SCT060 BECMG 0906/0908 9999 NSW FEW060 BECMG 0909/0911 04007KT TEMPO 0910/0915 SCT060 BKN100

METAR/TAF LOWG 

LOWG 182020Z VRB01KT 0600 R17/1400D R35/0400N FZFG SCT000 M04/M04 Q1020 BECMG 0300 VV001

TAF TAF AMD LOWG 181929Z 1819/1918 VRB02KT 9999 FEW002 BKN100 TX01/1913Z TNM06/1906Z TEMPO 1819/1908 0300 FZFG VV001 PROB30 TEMPO 1902/1909 BKN012 BECMG 1908/1910 17004KT FEW030 BKN050

(Information der letzten Stunde)

(Information der letzten Stunde)

Dichtehöhe (in LOGT)
Temperatur / Windchill der letzten 10 Tage

Ext. Links zu Wetterdiensten

ALDIS

Öster.- Unwetterzentrale